sensor_id;sensor_type;location;lat;lon;timestamp;temperature;humidity
26378;DHT22;14078;50.974;6.786;2023-08-08T00:01:13;14.50;39.50
26378;DHT22;14078;50.974;6.786;2023-08-08T00:03:39;14.50;44.40
26378;DHT22;14078;50.974;6.786;2023-08-08T00:06:06;14.50;48.50
26378;DHT22;14078;50.974;6.786;2023-08-08T00:08:32;14.40;45.00
26378;DHT22;14078;50.974;6.786;2023-08-08T00:10:59;14.40;50.40
26378;DHT22;14078;50.974;6.786;2023-08-08T00:13:25;14.40;52.10
26378;DHT22;14078;50.974;6.786;2023-08-08T00:15:53;14.40;38.70
26378;DHT22;14078;50.974;6.786;2023-08-08T00:18:20;14.30;54.10
26378;DHT22;14078;50.974;6.786;2023-08-08T00:20:46;14.30;45.90
26378;DHT22;14078;50.974;6.786;2023-08-08T00:23:13;14.20;63.90
26378;DHT22;14078;50.974;6.786;2023-08-08T00:25:39;14.20;69.30
26378;DHT22;14078;50.974;6.786;2023-08-08T00:28:06;14.20;49.30
26378;DHT22;14078;50.974;6.786;2023-08-08T00:30:32;14.20;48.90
26378;DHT22;14078;50.974;6.786;2023-08-08T00:33:00;14.20;56.70
26378;DHT22;14078;50.974;6.786;2023-08-08T00:35:27;14.20;61.00
26378;DHT22;14078;50.974;6.786;2023-08-08T00:37:53;14.20;36.90
26378;DHT22;14078;50.974;6.786;2023-08-08T00:40:20;14.20;41.00
26378;DHT22;14078;50.974;6.786;2023-08-08T00:42:46;14.10;43.10
26378;DHT22;14078;50.974;6.786;2023-08-08T00:45:13;14.10;52.60
26378;DHT22;14078;50.974;6.786;2023-08-08T00:47:39;14.10;48.80
26378;DHT22;14078;50.974;6.786;2023-08-08T00:50:08;14.10;54.00
26378;DHT22;14078;50.974;6.786;2023-08-08T00:52:34;14.00;62.50
26378;DHT22;14078;50.974;6.786;2023-08-08T00:55:01;14.10;31.10
26378;DHT22;14078;50.974;6.786;2023-08-08T00:57:28;14.10;40.80
26378;DHT22;14078;50.974;6.786;2023-08-08T00:59:55;14.10;29.10
26378;DHT22;14078;50.974;6.786;2023-08-08T01:02:22;14.00;43.80
26378;DHT22;14078;50.974;6.786;2023-08-08T01:04:48;14.10;36.90
26378;DHT22;14078;50.974;6.786;2023-08-08T01:07:18;14.10;39.60
26378;DHT22;14078;50.974;6.786;2023-08-08T01:09:48;14.10;45.40
26378;DHT22;14078;50.974;6.786;2023-08-08T01:12:16;14.00;48.30
26378;DHT22;14078;50.974;6.786;2023-08-08T01:14:43;14.10;34.80
26378;DHT22;14078;50.974;6.786;2023-08-08T01:17:10;14.00;54.90
26378;DHT22;14078;50.974;6.786;2023-08-08T01:19:37;14.00;76.00
26378;DHT22;14078;50.974;6.786;2023-08-08T01:22:05;14.00;66.20
26378;DHT22;14078;50.974;6.786;2023-08-08T01:24:33;14.10;57.20
26378;DHT22;14078;50.974;6.786;2023-08-08T01:27:02;14.10;56.10
26378;DHT22;14078;50.974;6.786;2023-08-08T01:29:29;14.10;45.70
26378;DHT22;14078;50.974;6.786;2023-08-08T01:31:56;14.10;48.80
26378;DHT22;14078;50.974;6.786;2023-08-08T01:34:22;14.10;67.40
26378;DHT22;14078;50.974;6.786;2023-08-08T01:36:49;14.10;62.10
26378;DHT22;14078;50.974;6.786;2023-08-08T01:39:20;14.10;75.50
26378;DHT22;14078;50.974;6.786;2023-08-08T01:41:48;14.10;67.50
26378;DHT22;14078;50.974;6.786;2023-08-08T01:44:15;14.00;87.30
26378;DHT22;14078;50.974;6.786;2023-08-08T01:46:42;14.00;89.40
26378;DHT22;14078;50.974;6.786;2023-08-08T01:49:09;14.00;81.50
26378;DHT22;14078;50.974;6.786;2023-08-08T01:51:36;14.00;69.70
26378;DHT22;14078;50.974;6.786;2023-08-08T01:54:02;14.00;84.90
26378;DHT22;14078;50.974;6.786;2023-08-08T01:56:29;14.00;90.00
26378;DHT22;14078;50.974;6.786;2023-08-08T01:58:56;13.90;97.60
26378;DHT22;14078;50.974;6.786;2023-08-08T02:01:23;13.90;92.80
26378;DHT22;14078;50.974;6.786;2023-08-08T02:03:49;13.90;90.20
26378;DHT22;14078;50.974;6.786;2023-08-08T02:06:16;13.90;94.00
26378;DHT22;14078;50.974;6.786;2023-08-08T02:08:42;14.00;90.40
26378;DHT22;14078;50.974;6.786;2023-08-08T02:11:09;13.90;95.10
26378;DHT22;14078;50.974;6.786;2023-08-08T02:13:35;13.80;97.90
26378;DHT22;14078;50.974;6.786;2023-08-08T02:16:03;13.80;99.90
26378;DHT22;14078;50.974;6.786;2023-08-08T02:18:30;13.90;97.80
26378;DHT22;14078;50.974;6.786;2023-08-08T02:20:56;13.90;96.40
26378;DHT22;14078;50.974;6.786;2023-08-08T02:23:23;13.90;89.20
26378;DHT22;14078;50.974;6.786;2023-08-08T02:25:49;13.80;95.50
26378;DHT22;14078;50.974;6.786;2023-08-08T02:28:16;13.90;92.80
26378;DHT22;14078;50.974;6.786;2023-08-08T02:30:42;13.80;92.00
26378;DHT22;14078;50.974;6.786;2023-08-08T02:33:10;13.80;97.00
26378;DHT22;14078;50.974;6.786;2023-08-08T02:35:37;13.80;96.70
26378;DHT22;14078;50.974;6.786;2023-08-08T02:38:03;13.80;93.50
26378;DHT22;14078;50.974;6.786;2023-08-08T02:40:30;13.80;81.10
26378;DHT22;14078;50.974;6.786;2023-08-08T02:42:57;13.90;59.50
26378;DHT22;14078;50.974;6.786;2023-08-08T02:45:24;13.90;70.80
26378;DHT22;14078;50.974;6.786;2023-08-08T02:47:50;13.80;69.20
26378;DHT22;14078;50.974;6.786;2023-08-08T02:50:18;13.80;79.60
26378;DHT22;14078;50.974;6.786;2023-08-08T02:52:45;13.80;75.20
26378;DHT22;14078;50.974;6.786;2023-08-08T02:55:12;13.80;84.60
26378;DHT22;14078;50.974;6.786;2023-08-08T02:57:39;13.80;79.20
26378;DHT22;14078;50.974;6.786;2023-08-08T03:00:06;13.70;90.10
26378;DHT22;14078;50.974;6.786;2023-08-08T03:02:33;13.70;91.40
26378;DHT22;14078;50.974;6.786;2023-08-08T03:05:00;13.70;92.20
26378;DHT22;14078;50.974;6.786;2023-08-08T03:07:27;13.70;91.50
26378;DHT22;14078;50.974;6.786;2023-08-08T03:09:54;13.70;91.10
26378;DHT22;14078;50.974;6.786;2023-08-08T03:12:20;13.70;94.10
26378;DHT22;14078;50.974;6.786;2023-08-08T03:14:47;13.60;92.70
26378;DHT22;14078;50.974;6.786;2023-08-08T03:17:14;13.60;95.90
26378;DHT22;14078;50.974;6.786;2023-08-08T03:19:40;13.60;99.90
26378;DHT22;14078;50.974;6.786;2023-08-08T03:22:07;13.60;99.90
26378;DHT22;14078;50.974;6.786;2023-08-08T03:24:34;13.60;99.40
26378;DHT22;14078;50.974;6.786;2023-08-08T03:27:01;13.60;99.90
26378;DHT22;14078;50.974;6.786;2023-08-08T03:29:27;13.60;99.90
26378;DHT22;14078;50.974;6.786;2023-08-08T03:31:54;13.50;99.90
26378;DHT22;14078;50.974;6.786;2023-08-08T03:34:20;13.60;99.90
26378;DHT22;14078;50.974;6.786;2023-08-08T03:36:47;13.50;99.90
26378;DHT22;14078;50.974;6.786;2023-08-08T03:39:13;13.50;99.90
26378;DHT22;14078;50.974;6.786;2023-08-08T03:41:41;13.50;99.90
26378;DHT22;14078;50.974;6.786;2023-08-08T03:44:08;13.50;99.90
26378;DHT22;14078;50.974;6.786;2023-08-08T03:46:34;13.40;99.90
26378;DHT22;14078;50.974;6.786;2023-08-08T03:49:01;13.50;99.90
26378;DHT22;14078;50.974;6.786;2023-08-08T03:51:27;13.50;99.90
26378;DHT22;14078;50.974;6.786;2023-08-08T03:53:54;13.40;99.90
26378;DHT22;14078;50.974;6.786;2023-08-08T03:56:20;13.50;99.90
26378;DHT22;14078;50.974;6.786;2023-08-08T03:58:48;13.40;99.90
26378;DHT22;14078;50.974;6.786;2023-08-08T04:01:15;13.40;99.90
26378;DHT22;14078;50.974;6.786;2023-08-08T04:03:41;13.50;99.90
26378;DHT22;14078;50.974;6.786;2023-08-08T04:06:08;13.40;99.90
26378;DHT22;14078;50.974;6.786;2023-08-08T04:08:34;13.40;99.90
26378;DHT22;14078;50.974;6.786;2023-08-08T04:11:01;13.50;99.90
26378;DHT22;14078;50.974;6.786;2023-08-08T04:13:27;13.40;99.90
26378;DHT22;14078;50.974;6.786;2023-08-08T04:15:55;13.40;99.90
26378;DHT22;14078;50.974;6.786;2023-08-08T04:18:21;13.40;99.90
26378;DHT22;14078;50.974;6.786;2023-08-08T04:20:48;13.40;99.90
26378;DHT22;14078;50.974;6.786;2023-08-08T04:23:14;13.30;99.90
26378;DHT22;14078;50.974;6.786;2023-08-08T04:25:41;13.50;99.90
26378;DHT22;14078;50.974;6.786;2023-08-08T04:28:07;13.40;99.90
26378;DHT22;14078;50.974;6.786;2023-08-08T04:30:34;13.40;99.90
26378;DHT22;14078;50.974;6.786;2023-08-08T04:33:02;13.40;99.90
26378;DHT22;14078;50.974;6.786;2023-08-08T04:35:29;13.40;99.90
26378;DHT22;14078;50.974;6.786;2023-08-08T04:37:55;13.40;99.90
26378;DHT22;14078;50.974;6.786;2023-08-08T04:40:22;13.40;99.90
26378;DHT22;14078;50.974;6.786;2023-08-08T04:42:48;13.30;99.90
26378;DHT22;14078;50.974;6.786;2023-08-08T04:45:15;13.40;99.90
26378;DHT22;14078;50.974;6.786;2023-08-08T04:47:42;13.40;99.90
26378;DHT22;14078;50.974;6.786;2023-08-08T04:50:10;13.40;99.90
26378;DHT22;14078;50.974;6.786;2023-08-08T04:52:36;13.40;99.90
26378;DHT22;14078;50.974;6.786;2023-08-08T04:55:03;13.50;99.90
26378;DHT22;14078;50.974;6.786;2023-08-08T04:57:30;13.50;99.90
26378;DHT22;14078;50.974;6.786;2023-08-08T04:59:56;13.60;99.90
26378;DHT22;14078;50.974;6.786;2023-08-08T05:02:23;13.60;99.90
26378;DHT22;14078;50.974;6.786;2023-08-08T05:04:49;13.70;99.90
26378;DHT22;14078;50.974;6.786;2023-08-08T05:07:17;13.80;99.90
26378;DHT22;14078;50.974;6.786;2023-08-08T05:09:44;13.80;99.90
26378;DHT22;14078;50.974;6.786;2023-08-08T05:12:10;13.90;99.90
26378;DHT22;14078;50.974;6.786;2023-08-08T05:14:37;14.00;99.90
26378;DHT22;14078;50.974;6.786;2023-08-08T05:17:03;14.00;99.90
26378;DHT22;14078;50.974;6.786;2023-08-08T05:19:30;14.00;99.90
26378;DHT22;14078;50.974;6.786;2023-08-08T05:21:57;14.10;99.90
26378;DHT22;14078;50.974;6.786;2023-08-08T05:24:24;14.10;99.90
26378;DHT22;14078;50.974;6.786;2023-08-08T05:26:51;14.20;99.90
26378;DHT22;14078;50.974;6.786;2023-08-08T05:29:18;14.30;99.90
26378;DHT22;14078;50.974;6.786;2023-08-08T05:31:45;14.30;99.90
26378;DHT22;14078;50.974;6.786;2023-08-08T05:34:11;14.40;99.90
26378;DHT22;14078;50.974;6.786;2023-08-08T05:36:38;14.40;99.90
26378;DHT22;14078;50.974;6.786;2023-08-08T05:39:04;14.40;99.90
26378;DHT22;14078;50.974;6.786;2023-08-08T05:41:33;14.40;99.90
26378;DHT22;14078;50.974;6.786;2023-08-08T05:44:00;14.40;99.90
26378;DHT22;14078;50.974;6.786;2023-08-08T05:46:26;14.40;99.90
26378;DHT22;14078;50.974;6.786;2023-08-08T05:48:53;14.50;99.90
26378;DHT22;14078;50.974;6.786;2023-08-08T05:51:19;14.50;99.90
26378;DHT22;14078;50.974;6.786;2023-08-08T05:53:46;14.50;99.90
26378;DHT22;14078;50.974;6.786;2023-08-08T05:56:13;14.70;99.90
26378;DHT22;14078;50.974;6.786;2023-08-08T05:58:41;14.70;99.90
26378;DHT22;14078;50.974;6.786;2023-08-08T06:01:07;14.80;99.90
26378;DHT22;14078;50.974;6.786;2023-08-08T06:03:35;14.80;99.90
26378;DHT22;14078;50.974;6.786;2023-08-08T06:06:03;14.90;99.90
26378;DHT22;14078;50.974;6.786;2023-08-08T06:08:29;14.90;99.90
26378;DHT22;14078;50.974;6.786;2023-08-08T06:10:56;14.90;98.40
26378;DHT22;14078;50.974;6.786;2023-08-08T06:13:23;14.90;99.90
26378;DHT22;14078;50.974;6.786;2023-08-08T06:15:51;14.90;99.90
26378;DHT22;14078;50.974;6.786;2023-08-08T06:18:17;15.00;99.90
26378;DHT22;14078;50.974;6.786;2023-08-08T06:20:44;15.10;98.80
26378;DHT22;14078;50.974;6.786;2023-08-08T06:23:10;15.20;86.20
26378;DHT22;14078;50.974;6.786;2023-08-08T06:25:37;15.30;76.50
26378;DHT22;14078;50.974;6.786;2023-08-08T06:28:04;15.30;55.20
26378;DHT22;14078;50.974;6.786;2023-08-08T06:30:31;15.40;63.70
26378;DHT22;14078;50.974;6.786;2023-08-08T06:32:59;15.40;44.90
26378;DHT22;14078;50.974;6.786;2023-08-08T06:35:26;15.40;33.90
26378;DHT22;14078;50.974;6.786;2023-08-08T06:37:52;15.40;49.20
26378;DHT22;14078;50.974;6.786;2023-08-08T06:40:19;15.50;27.10
26378;DHT22;14078;50.974;6.786;2023-08-08T06:42:46;15.60;19.60
26378;DHT22;14078;50.974;6.786;2023-08-08T06:45:13;15.60;4.50
26378;DHT22;14078;50.974;6.786;2023-08-08T06:47:39;15.60;12.60
26378;DHT22;14078;50.974;6.786;2023-08-08T06:50:08;15.60;6.00
26378;DHT22;14078;50.974;6.786;2023-08-08T06:52:34;15.70;2.60
26378;DHT22;14078;50.974;6.786;2023-08-08T06:55:01;15.80;2.20
26378;DHT22;14078;50.974;6.786;2023-08-08T06:57:29;15.80;1.00
26378;DHT22;14078;50.974;6.786;2023-08-08T06:59:56;15.80;1.00
26378;DHT22;14078;50.974;6.786;2023-08-08T07:02:23;15.90;14.80
26378;DHT22;14078;50.974;6.786;2023-08-08T07:04:49;16.10;1.00
26378;DHT22;14078;50.974;6.786;2023-08-08T07:07:17;16.10;1.00
26378;DHT22;14078;50.974;6.786;2023-08-08T07:09:44;16.20;1.00
26378;DHT22;14078;50.974;6.786;2023-08-08T07:12:10;16.20;1.00
26378;DHT22;14078;50.974;6.786;2023-08-08T07:14:37;16.30;1.00
26378;DHT22;14078;50.974;6.786;2023-08-08T07:17:03;16.40;1.00
26378;DHT22;14078;50.974;6.786;2023-08-08T07:19:30;16.50;1.00
26378;DHT22;14078;50.974;6.786;2023-08-08T07:21:57;16.50;1.00
26378;DHT22;14078;50.974;6.786;2023-08-08T07:24:24;16.70;1.00
26378;DHT22;14078;50.974;6.786;2023-08-08T07:26:53;16.70;1.00
26378;DHT22;14078;50.974;6.786;2023-08-08T07:29:20;16.70;1.00
26378;DHT22;14078;50.974;6.786;2023-08-08T07:31:46;16.70;1.00
26378;DHT22;14078;50.974;6.786;2023-08-08T07:34:13;16.80;1.00
26378;DHT22;14078;50.974;6.786;2023-08-08T07:36:39;16.80;99.90
26378;DHT22;14078;50.974;6.786;2023-08-08T07:39:06;16.70;99.90
26378;DHT22;14078;50.974;6.786;2023-08-08T07:41:34;16.60;1.00
26378;DHT22;14078;50.974;6.786;2023-08-08T07:44:01;16.50;1.00
26378;DHT22;14078;50.974;6.786;2023-08-08T07:46:27;16.60;1.00
26378;DHT22;14078;50.974;6.786;2023-08-08T07:48:54;16.60;1.00
26378;DHT22;14078;50.974;6.786;2023-08-08T07:51:20;16.70;1.00
26378;DHT22;14078;50.974;6.786;2023-08-08T07:53:47;16.70;1.00
26378;DHT22;14078;50.974;6.786;2023-08-08T07:56:13;16.80;1.00
26378;DHT22;14078;50.974;6.786;2023-08-08T07:58:41;16.90;1.00
26378;DHT22;14078;50.974;6.786;2023-08-08T08:01:08;17.00;99.90
26378;DHT22;14078;50.974;6.786;2023-08-08T08:03:34;17.00;99.90
26378;DHT22;14078;50.974;6.786;2023-08-08T08:06:01;17.00;1.00
26378;DHT22;14078;50.974;6.786;2023-08-08T08:08:28;17.10;1.00
26378;DHT22;14078;50.974;6.786;2023-08-08T08:10:54;17.20;1.00
26378;DHT22;14078;50.974;6.786;2023-08-08T08:13:21;17.30;99.90
26378;DHT22;14078;50.974;6.786;2023-08-08T08:15:48;17.20;41.20
26378;DHT22;14078;50.974;6.786;2023-08-08T08:18:15;17.00;99.90
26378;DHT22;14078;50.974;6.786;2023-08-08T08:20:42;16.80;99.90
26378;DHT22;14078;50.974;6.786;2023-08-08T08:23:09;16.70;1.00
26378;DHT22;14078;50.974;6.786;2023-08-08T08:25:35;16.60;1.00
26378;DHT22;14078;50.974;6.786;2023-08-08T08:28:02;16.60;1.00
26378;DHT22;14078;50.974;6.786;2023-08-08T08:30:28;16.60;1.00
26378;DHT22;14078;50.974;6.786;2023-08-08T08:32:56;16.50;1.00
26378;DHT22;14078;50.974;6.786;2023-08-08T08:35:23;16.50;1.00
26378;DHT22;14078;50.974;6.786;2023-08-08T08:37:50;16.70;1.00
26378;DHT22;14078;50.974;6.786;2023-08-08T08:40:17;16.70;1.00
26378;DHT22;14078;50.974;6.786;2023-08-08T08:42:43;16.70;1.00
26378;DHT22;14078;50.974;6.786;2023-08-08T08:45:11;16.80;1.00
26378;DHT22;14078;50.974;6.786;2023-08-08T08:47:39;16.70;1.00
26378;DHT22;14078;50.974;6.786;2023-08-08T08:50:08;16.70;1.00
26378;DHT22;14078;50.974;6.786;2023-08-08T08:52:35;16.90;1.00
26378;DHT22;14078;50.974;6.786;2023-08-08T08:55:02;17.00;1.00
26378;DHT22;14078;50.974;6.786;2023-08-08T08:57:28;17.00;99.90
26378;DHT22;14078;50.974;6.786;2023-08-08T08:59:55;17.10;1.00
26378;DHT22;14078;50.974;6.786;2023-08-08T09:02:22;17.10;63.00
26378;DHT22;14078;50.974;6.786;2023-08-08T09:04:49;17.10;99.90
26378;DHT22;14078;50.974;6.786;2023-08-08T09:07:18;17.10;1.00
26378;DHT22;14078;50.974;6.786;2023-08-08T09:09:45;17.10;99.90
26378;DHT22;14078;50.974;6.786;2023-08-08T09:12:12;17.20;1.00
26378;DHT22;14078;50.974;6.786;2023-08-08T09:14:39;17.20;39.00
26378;DHT22;14078;50.974;6.786;2023-08-08T09:17:09;17.20;1.00
26378;DHT22;14078;50.974;6.786;2023-08-08T09:19:36;17.20;99.90
26378;DHT22;14078;50.974;6.786;2023-08-08T09:22:03;17.20;99.90
26378;DHT22;14078;50.974;6.786;2023-08-08T09:24:31;17.40;1.00
26378;DHT22;14078;50.974;6.786;2023-08-08T09:26:57;17.40;99.90
26378;DHT22;14078;50.974;6.786;2023-08-08T09:29:24;17.40;99.90
26378;DHT22;14078;50.974;6.786;2023-08-08T09:31:50;17.50;1.00
26378;DHT22;14078;50.974;6.786;2023-08-08T09:34:17;17.50;99.90
26378;DHT22;14078;50.974;6.786;2023-08-08T09:36:43;17.50;5.60
26378;DHT22;14078;50.974;6.786;2023-08-08T09:39:10;17.50;46.30
26378;DHT22;14078;50.974;6.786;2023-08-08T09:41:38;17.50;99.90
26378;DHT22;14078;50.974;6.786;2023-08-08T09:44:05;17.60;99.90
26378;DHT22;14078;50.974;6.786;2023-08-08T09:46:32;17.80;1.00
26378;DHT22;14078;50.974;6.786;2023-08-08T09:48:58;18.00;1.00
26378;DHT22;14078;50.974;6.786;2023-08-08T09:51:25;18.10;99.90
26378;DHT22;14078;50.974;6.786;2023-08-08T09:53:52;18.20;99.90
26378;DHT22;14078;50.974;6.786;2023-08-08T09:56:20;18.20;1.00
26378;DHT22;14078;50.974;6.786;2023-08-08T09:58:48;18.00;1.00
26378;DHT22;14078;50.974;6.786;2023-08-08T10:01:15;17.90;1.00
26378;DHT22;14078;50.974;6.786;2023-08-08T10:03:41;17.80;1.00
26378;DHT22;14078;50.974;6.786;2023-08-08T10:06:08;17.80;1.00
26378;DHT22;14078;50.974;6.786;2023-08-08T10:08:35;17.80;99.90
26378;DHT22;14078;50.974;6.786;2023-08-08T10:11:02;18.00;99.90
26378;DHT22;14078;50.974;6.786;2023-08-08T10:13:29;18.10;54.00
26378;DHT22;14078;50.974;6.786;2023-08-08T10:15:56;18.30;1.00
26378;DHT22;14078;50.974;6.786;2023-08-08T10:18:23;18.40;99.90
26378;DHT22;14078;50.974;6.786;2023-08-08T10:20:50;18.50;99.90
26378;DHT22;14078;50.974;6.786;2023-08-08T10:23:18;18.50;99.90
26378;DHT22;14078;50.974;6.786;2023-08-08T10:25:45;18.70;99.90
26378;DHT22;14078;50.974;6.786;2023-08-08T10:28:13;18.80;99.90
26378;DHT22;14078;50.974;6.786;2023-08-08T10:30:44;18.80;99.90
26378;DHT22;14078;50.974;6.786;2023-08-08T10:33:19;19.00;99.90
26378;DHT22;14078;50.974;6.786;2023-08-08T10:35:56;19.10;99.90
26378;DHT22;14078;50.974;6.786;2023-08-08T10:38:23;19.20;99.40
26378;DHT22;14078;50.974;6.786;2023-08-08T10:40:55;19.20;34.30
26378;DHT22;14078;50.974;6.786;2023-08-08T10:43:24;19.10;45.90
26378;DHT22;14078;50.974;6.786;2023-08-08T10:45:51;18.90;99.90
26378;DHT22;14078;50.974;6.786;2023-08-08T10:48:19;18.80;99.90
26378;DHT22;14078;50.974;6.786;2023-08-08T10:50:45;18.70;86.00
26378;DHT22;14078;50.974;6.786;2023-08-08T10:53:14;18.50;99.90
26378;DHT22;14078;50.974;6.786;2023-08-08T10:55:41;18.50;99.90
26378;DHT22;14078;50.974;6.786;2023-08-08T10:58:10;18.50;91.10
26378;DHT22;14078;50.974;6.786;2023-08-08T11:00:37;18.50;92.80
26378;DHT22;14078;50.974;6.786;2023-08-08T11:03:04;18.50;99.90
26378;DHT22;14078;50.974;6.786;2023-08-08T11:05:33;18.50;95.30
26378;DHT22;14078;50.974;6.786;2023-08-08T11:08:00;18.50;99.90
26378;DHT22;14078;50.974;6.786;2023-08-08T11:10:27;18.50;99.90
26378;DHT22;14078;50.974;6.786;2023-08-08T11:12:57;18.50;99.90
26378;DHT22;14078;50.974;6.786;2023-08-08T11:15:23;18.60;99.90
26378;DHT22;14078;50.974;6.786;2023-08-08T11:17:50;18.70;90.50
26378;DHT22;14078;50.974;6.786;2023-08-08T11:20:17;18.70;60.40
26378;DHT22;14078;50.974;6.786;2023-08-08T11:22:45;18.80;36.10
26378;DHT22;14078;50.974;6.786;2023-08-08T11:25:16;18.80;63.70
26378;DHT22;14078;50.974;6.786;2023-08-08T11:27:48;18.90;42.40
26378;DHT22;14078;50.974;6.786;2023-08-08T11:30:14;18.90;1.00
26378;DHT22;14078;50.974;6.786;2023-08-08T11:32:41;18.80;13.20
26378;DHT22;14078;50.974;6.786;2023-08-08T11:35:08;18.80;38.10
26378;DHT22;14078;50.974;6.786;2023-08-08T11:37:35;18.70;40.70
26378;DHT22;14078;50.974;6.786;2023-08-08T11:40:04;18.70;16.90
26378;DHT22;14078;50.974;6.786;2023-08-08T11:42:30;18.70;48.10
26378;DHT22;14078;50.974;6.786;2023-08-08T11:44:57;18.80;1.00
26378;DHT22;14078;50.974;6.786;2023-08-08T11:47:24;18.70;1.00
26378;DHT22;14078;50.974;6.786;2023-08-08T11:49:51;18.60;1.00
26378;DHT22;14078;50.974;6.786;2023-08-08T11:52:18;18.60;1.00
26378;DHT22;14078;50.974;6.786;2023-08-08T11:54:49;18.50;1.00
26378;DHT22;14078;50.974;6.786;2023-08-08T11:57:18;18.50;1.00
26378;DHT22;14078;50.974;6.786;2023-08-08T11:59:44;18.40;1.00
26378;DHT22;14078;50.974;6.786;2023-08-08T12:02:11;18.50;1.00
26378;DHT22;14078;50.974;6.786;2023-08-08T12:04:38;18.60;1.00
26378;DHT22;14078;50.974;6.786;2023-08-08T12:07:04;18.60;1.00
26378;DHT22;14078;50.974;6.786;2023-08-08T12:09:31;18.60;2.30
26378;DHT22;14078;50.974;6.786;2023-08-08T12:11:59;18.70;1.00
26378;DHT22;14078;50.974;6.786;2023-08-08T12:14:27;18.80;1.00
26378;DHT22;14078;50.974;6.786;2023-08-08T12:16:53;18.80;1.00
26378;DHT22;14078;50.974;6.786;2023-08-08T12:19:22;18.80;1.00
26378;DHT22;14078;50.974;6.786;2023-08-08T12:21:48;19.00;1.00
26378;DHT22;14078;50.974;6.786;2023-08-08T12:24:15;18.90;1.00
26378;DHT22;14078;50.974;6.786;2023-08-08T12:26:42;19.00;1.00
26378;DHT22;14078;50.974;6.786;2023-08-08T12:29:08;19.00;1.00
26378;DHT22;14078;50.974;6.786;2023-08-08T12:31:36;19.10;1.00
26378;DHT22;14078;50.974;6.786;2023-08-08T12:34:03;19.00;1.00
26378;DHT22;14078;50.974;6.786;2023-08-08T12:36:30;18.80;1.00
26378;DHT22;14078;50.974;6.786;2023-08-08T12:38:57;18.70;1.00
26378;DHT22;14078;50.974;6.786;2023-08-08T12:41:23;18.50;1.00
26378;DHT22;14078;50.974;6.786;2023-08-08T12:43:50;18.20;99.90
26378;DHT22;14078;50.974;6.786;2023-08-08T12:46:17;17.90;95.70
26378;DHT22;14078;50.974;6.786;2023-08-08T12:48:45;17.60;99.90
26378;DHT22;14078;50.974;6.786;2023-08-08T12:51:11;17.30;1.00
26378;DHT22;14078;50.974;6.786;2023-08-08T12:53:38;17.00;1.00
26378;DHT22;14078;50.974;6.786;2023-08-08T12:56:04;17.00;1.00
26378;DHT22;14078;50.974;6.786;2023-08-08T13:00:57;16.80;1.00
26378;DHT22;14078;50.974;6.786;2023-08-08T13:03:24;16.80;1.00
26378;DHT22;14078;50.974;6.786;2023-08-08T13:05:51;16.90;2.20
26378;DHT22;14078;50.974;6.786;2023-08-08T13:08:18;17.00;4.20
26378;DHT22;14078;50.974;6.786;2023-08-08T13:10:44;17.10;1.00
26378;DHT22;14078;50.974;6.786;2023-08-08T13:13:11;17.20;1.00
26378;DHT22;14078;50.974;6.786;2023-08-08T13:15:38;17.40;1.00
26378;DHT22;14078;50.974;6.786;2023-08-08T13:18:05;17.80;99.90
26378;DHT22;14078;50.974;6.786;2023-08-08T13:20:31;18.20;99.90
26378;DHT22;14078;50.974;6.786;2023-08-08T13:22:59;18.70;1.00
26378;DHT22;14078;50.974;6.786;2023-08-08T13:25:26;18.80;1.00
26378;DHT22;14078;50.974;6.786;2023-08-08T13:27:52;18.90;23.90
26378;DHT22;14078;50.974;6.786;2023-08-08T13:30:19;18.90;99.90
26378;DHT22;14078;50.974;6.786;2023-08-08T13:32:46;19.00;1.00
26378;DHT22;14078;50.974;6.786;2023-08-08T13:35:13;19.10;1.00
26378;DHT22;14078;50.974;6.786;2023-08-08T13:37:39;19.10;1.00
26378;DHT22;14078;50.974;6.786;2023-08-08T13:40:08;19.00;1.00
26378;DHT22;14078;50.974;6.786;2023-08-08T13:42:34;18.90;8.10
26378;DHT22;14078;50.974;6.786;2023-08-08T13:45:01;18.60;99.90
26378;DHT22;14078;50.974;6.786;2023-08-08T13:47:27;18.50;99.90
26378;DHT22;14078;50.974;6.786;2023-08-08T13:49:54;18.40;1.00
26378;DHT22;14078;50.974;6.786;2023-08-08T13:52:20;18.40;99.90
26378;DHT22;14078;50.974;6.786;2023-08-08T13:54:47;18.30;99.90
26378;DHT22;14078;50.974;6.786;2023-08-08T13:57:15;18.20;1.00
26378;DHT22;14078;50.974;6.786;2023-08-08T13:59:41;18.30;1.00
26378;DHT22;14078;50.974;6.786;2023-08-08T14:02:08;18.40;1.00
26378;DHT22;14078;50.974;6.786;2023-08-08T14:04:34;18.60;99.90
26378;DHT22;14078;50.974;6.786;2023-08-08T14:07:01;18.80;99.90
26378;DHT22;14078;50.974;6.786;2023-08-08T14:09:27;18.90;99.90
26378;DHT22;14078;50.974;6.786;2023-08-08T14:11:54;19.00;98.60
26378;DHT22;14078;50.974;6.786;2023-08-08T14:14:22;19.00;99.90
26378;DHT22;14078;50.974;6.786;2023-08-08T14:16:48;19.20;99.90
26378;DHT22;14078;50.974;6.786;2023-08-08T14:19:15;19.40;1.00
26378;DHT22;14078;50.974;6.786;2023-08-08T14:21:42;19.50;1.00
26378;DHT22;14078;50.974;6.786;2023-08-08T14:24:08;19.50;1.00
26378;DHT22;14078;50.974;6.786;2023-08-08T14:26:35;19.60;1.00
26378;DHT22;14078;50.974;6.786;2023-08-08T14:29:02;19.60;1.00
26378;DHT22;14078;50.974;6.786;2023-08-08T14:31:29;19.70;1.00
26378;DHT22;14078;50.974;6.786;2023-08-08T14:33:56;20.00;1.00
26378;DHT22;14078;50.974;6.786;2023-08-08T14:36:22;20.30;1.00
26378;DHT22;14078;50.974;6.786;2023-08-08T14:38:49;20.40;1.00
26378;DHT22;14078;50.974;6.786;2023-08-08T14:41:15;20.30;1.00
26378;DHT22;14078;50.974;6.786;2023-08-08T14:43:42;20.50;1.00
26378;DHT22;14078;50.974;6.786;2023-08-08T14:46:08;20.70;1.00
26378;DHT22;14078;50.974;6.786;2023-08-08T14:48:37;20.80;1.00
26378;DHT22;14078;50.974;6.786;2023-08-08T14:51:03;21.10;1.00
26378;DHT22;14078;50.974;6.786;2023-08-08T14:53:30;21.20;1.00
26378;DHT22;14078;50.974;6.786;2023-08-08T14:55:56;21.30;1.00
26378;DHT22;14078;50.974;6.786;2023-08-08T14:58:23;21.30;1.00
26378;DHT22;14078;50.974;6.786;2023-08-08T15:00:49;21.20;1.00
26378;DHT22;14078;50.974;6.786;2023-08-08T15:03:16;21.10;1.00
26378;DHT22;14078;50.974;6.786;2023-08-08T15:05:46;21.40;1.00
26378;DHT22;14078;50.974;6.786;2023-08-08T15:08:14;21.60;1.00
26378;DHT22;14078;50.974;6.786;2023-08-08T15:10:40;21.40;1.00
26378;DHT22;14078;50.974;6.786;2023-08-08T15:13:07;21.10;1.00
26378;DHT22;14078;50.974;6.786;2023-08-08T15:15:33;20.90;1.00
26378;DHT22;14078;50.974;6.786;2023-08-08T15:18:00;21.10;1.00
26378;DHT22;14078;50.974;6.786;2023-08-08T15:20:26;21.20;1.00
26378;DHT22;14078;50.974;6.786;2023-08-08T15:22:54;21.30;1.00
26378;DHT22;14078;50.974;6.786;2023-08-08T15:25:20;21.80;1.00
26378;DHT22;14078;50.974;6.786;2023-08-08T15:27:47;22.20;1.00
26378;DHT22;14078;50.974;6.786;2023-08-08T15:30:13;22.80;1.00
26378;DHT22;14078;50.974;6.786;2023-08-08T15:32:40;22.90;1.00
26378;DHT22;14078;50.974;6.786;2023-08-08T15:35:07;22.30;1.00
26378;DHT22;14078;50.974;6.786;2023-08-08T15:37:34;22.00;1.00